Astrakhan', Russia
Current Conditions -  °F | °C
As of 6:00 AM on Friday 28 Nov 2014 (Local Time) from URWA Reporting Station
Clear Clear  
Wind Chill: 11°   Ceiling: Unl
Heat Index: 23°   Visibility: 6mi
Dew Point: 18°   Wind: 13mph
Humidity: 80%   Direction: 80°E
Pressure: 30.45"   Gusts: NA
Location:  46.35°N, 48.05°E
Report Text: URWA 280300Z 08006MPS CAVOK M05/M08 Q1031 NOSIG RMK QFE775/1034SC060
Loading
Personal Weather Stations






























Interactive Weather Map New forecast layout! Learn more

10-Day Weather Forecast

Advertisements
Track Severe Weather on mobile